Time;durP1;ratioP1;P1;durP2;ratioP2;P2;SDS_P1;SDS_P2;PMS_P1;PMS_P2;Temp;Humidity;BMP_temperature;BMP_pressure;BME280_temperature;BME280_humidity;BME280_pressure;Samples;Min_cycle;Max_cycle;Signal;HPM_P1;HPM_P2
2021/08/17 00:00:11;;;;;;;5.42;3.83;;;;;;;22.13;67.10;99113.86;2157275;89;25710;-86
2021/08/17 00:07:37;;;;;;;4.37;3.98;;;;;;;22.11;67.12;99113.09;2115888;90;25656;-80
2021/08/17 00:11:49;;;;;;;;;;;;;;;;;;;;;
2021/08/17 00:26:37;;;;;;;4.12;3.72;;;;;;;21.77;67.87;99123.83;2148251;90;25939;-81
2021/08/17 00:30:28;;;;;;;;;;;;;;;;;;;;;
2021/08/17 00:34:11;;;;;;;7.92;4.40;;;;;;;21.60;68.45;99110.39;2125728;93;25179;-86
2021/08/17 00:41:29;;;;;;;5.12;4.22;;;;;;;21.65;68.81;99107.09;2086489;93;25613;-85
2021/08/17 00:48:52;;;;;;;5.65;3.98;;;;;;;21.73;68.62;99117.37;2140789;86;26017;-86
2021/08/17 00:52:51;;;;;;;8.80;4.53;;;;;;;21.76;68.64;99117.24;2178746;90;25575;-85
2021/08/17 00:57:11;;;;;;;5.05;3.80;;;;;;;21.75;68.61;99123.48;2085459;93;25699;-85
2021/08/17 01:04:26;;;;;;;5.85;4.10;;;;;;;21.64;68.74;99139.86;2090738;90;25808;-82
2021/08/17 01:08:09;;;;;;;4.62;4.12;;;;;;;21.67;68.72;99143.24;2145812;85;25733;-80
2021/08/17 01:19:41;;;;;;;;;;;;;;;;;;;;;
2021/08/17 01:23:38;;;;;;;12.40;4.65;;;;;;;21.84;68.36;99133.72;2162085;87;25691;-82
2021/08/17 01:27:04;;;;;;;8.53;4.00;;;;;;;22.02;67.92;99130.73;2145389;90;25791;-86
2021/08/17 01:31:02;;;;;;;10.32;3.67;;;;;;;22.14;67.44;99119.59;2072557;90;26666;-83
2021/08/17 01:34:31;;;;;;;5.22;4.03;;;;;;;22.24;67.12;99122.71;2135675;90;25666;-85
2021/08/17 01:38:31;;;;;;;4.70;3.90;;;;;;;22.26;66.92;99124.37;2151656;91;25556;-85
2021/08/17 01:42:39;;;;;;;12.15;4.03;;;;;;;22.24;66.64;99128.02;2057291;95;25611;-84
2021/08/17 01:46:16;;;;;;;12.13;3.72;;;;;;;22.18;66.34;99149.08;2040317;92;26037;-84
2021/08/17 01:50:17;;;;;;;4.67;3.83;;;;;;;22.04;66.13;99172.64;2034103;95;25504;-87
2021/08/17 01:58:00;;;;;;;9.25;3.60;;;;;;;21.67;66.71;99190.98;2045776;90;25685;-79
2021/08/17 02:05:40;;;;;;;10.82;3.47;;;;;;;21.88;67.03;99168.00;1949726;99;25837;-80
2021/08/17 02:09:17;;;;;;;6.30;4.15;;;;;;;22.13;66.65;99177.09;1871482;101;25994;-86
2021/08/17 02:13:27;;;;;;;5.28;4.05;;;;;;;22.18;65.96;99188.04;1915856;95;25925;-85
2021/08/17 02:24:43;;;;;;;4.00;3.55;;;;;;;21.95;66.19;99173.91;1982064;94;26592;-84
2021/08/17 02:35:50;;;;;;;5.80;3.77;;;;;;;22.06;65.44;99169.47;1884033;99;25697;-85
2021/08/17 02:40:01;;;;;;;4.67;3.50;;;;;;;22.17;65.22;99172.55;1935043;100;25818;-85
2021/08/17 02:43:33;;;;;;;6.60;3.42;;;;;;;22.12;64.75;99174.52;1905490;99;25713;-87
2021/08/17 02:50:46;;;;;;;7.87;3.80;;;;;;;21.99;64.41;99196.73;2015331;92;25648;-86
2021/08/17 03:06:04;;;;;;;7.53;3.85;;;;;;;21.81;64.29;99223.58;2094641;88;25820;-86
2021/08/17 03:10:04;;;;;;;;;;;;;;;;;;;;;
2021/08/17 03:22:09;;;;;;;5.95;3.35;;;;;;;21.66;64.59;99218.41;2256941;84;25747;-84
2021/08/17 03:25:48;;;;;;;3.72;3.17;;;;;;;21.80;64.34;99213.01;2249766;88;25706;-82
2021/08/17 03:29:33;;;;;;;6.00;3.67;;;;;;;21.83;64.07;99210.23;2214785;88;25577;-79
2021/08/17 03:32:50;;;;;;;4.08;3.02;;;;;;;21.85;63.81;99213.23;2146510;89;25541;-84
2021/08/17 03:36:31;;;;;;;4.87;3.10;;;;;;;21.78;63.75;99205.59;2180989;90;25585;-84
2021/08/17 03:40:23;;;;;;;3.35;2.85;;;;;;;21.79;63.60;99208.64;2137229;92;25603;-83
2021/08/17 03:48:00;;;;;;;6.15;3.30;;;;;;;21.78;63.45;99201.14;2132897;90;25576;-87
2021/08/17 04:13:25;;;;;;;5.97;3.77;;;;;;;21.69;63.43;99207.67;2213132;87;25874;-88
2021/08/17 04:17:23;;;;;;;3.72;2.87;;;;;;;21.66;63.51;99207.80;2143940;91;25741;-83
2021/08/17 04:24:40;;;;;;;4.72;3.33;;;;;;;21.66;63.34;99224.19;2314028;84;25587;-83
2021/08/17 04:28:16;;;;;;;6.80;3.55;;;;;;;21.59;63.43;99224.03;2306775;83;25457;-85
2021/08/17 04:32:08;;;;;;;;;;;;;;;;;;;;;
2021/08/17 04:35:59;;;;;;;4.50;3.70;;;;;;;21.50;63.34;99267.70;2131528;91;25548;-82
2021/08/17 04:50:52;;;;;;;;;;;;;;;;;;;;;
2021/08/17 04:54:20;;;;;;;6.55;2.08;;;;;;;21.36;62.75;99295.19;2125617;92;25508;-79
2021/08/17 05:01:55;;;;;;;5.30;2.25;;;;;;;21.48;62.65;99288.57;2132137;90;25944;-82
2021/08/17 05:05:47;;;;;;;3.30;1.75;;;;;;;21.54;62.19;99304.25;2114676;92;25775;-87
2021/08/17 05:17:44;;;;;;;2.33;1.55;;;;;;;21.41;61.32;99317.10;2041601;95;25574;31
2021/08/17 05:21:26;;;;;;;3.75;1.40;;;;;;;21.45;61.33;99329.31;1934855;98;25686;-80
2021/08/17 05:28:57;;;;;;;2.22;1.35;;;;;;;21.58;61.00;99341.19;2040491;92;26010;-85
2021/08/17 05:32:42;;;;;;;1.52;1.32;;;;;;;21.63;60.54;99359.56;2059251;95;25713;-85
2021/08/17 05:39:59;;;;;;;1.77;1.60;;;;;;;21.54;59.87;99360.80;1945458;97;25734;-80
2021/08/17 05:44:00;;;;;;;;;;;;;;;;;;;;;
2021/08/17 05:47:59;;;;;;;2.35;1.15;;;;;;;21.59;59.54;99369.43;1968673;100;25772;-83
2021/08/17 05:51:35;;;;;;;2.92;1.52;;;;;;;21.68;59.42;99368.23;2000801;97;25319;-85
2021/08/17 05:55:22;;;;;;;2.15;1.57;;;;;;;21.86;58.89;99364.86;1990487;98;25701;-82
2021/08/17 05:59:23;;;;;;;6.42;1.70;;;;;;;21.88;58.71;99383.39;1965777;96;25823;-84
2021/08/17 06:03:29;;;;;;;;;;;;;;;;;;;;;
2021/08/17 06:07:25;;;;;;;2.75;1.70;;;;;;;21.99;57.81;99394.44;2056445;95;25804;-84
2021/08/17 06:10:55;;;;;;;2.67;1.45;;;;;;;22.03;57.63;99391.20;2019882;97;25637;-84
2021/08/17 06:14:48;;;;;;;2.92;1.52;;;;;;;22.10;57.41;99396.20;2098025;89;25643;-85
2021/08/17 06:22:43;;;;;;;3.70;2.00;;;;;;;21.96;56.94;99409.62;2163561;90;25753;-84
2021/08/17 06:26:43;;;;;;;2.90;1.87;;;;;;;21.89;56.78;99405.86;2162303;87;27093;-86
2021/08/17 06:30:43;;;;;;;2.92;1.77;;;;;;;22.00;56.74;99413.41;2138839;86;25583;-85
2021/08/17 06:38:22;;;;;;;2.92;1.67;;;;;;;22.31;55.96;99409.14;2018280;94;25500;-81
2021/08/17 06:42:14;;;;;;;2.05;1.20;;;;;;;22.68;55.25;99409.41;2016097;98;25760;-86
2021/08/17 06:49:57;;;;;;;7.53;1.17;;;;;;;24.16;51.73;99425.46;1889457;98;25714;-86
2021/08/17 06:57:10;;;;;;;3.25;1.20;;;;;;;25.02;48.88;99438.61;1865723;104;25776;-85
2021/08/17 07:01:01;;;;;;;2.85;1.15;;;;;;;25.38;48.21;99425.66;1764869;109;25776;-85
2021/08/17 07:04:41;;;;;;;1.60;1.27;;;;;;;25.46;46.98;99434.14;1742078;110;25695;-85
2021/08/17 07:11:58;;;;;;;4.08;2.22;;;;;;;25.23;46.24;99450.48;1811095;107;25714;-86
2021/08/17 07:19:36;;;;;;;4.60;1.20;;;;;;;24.97;45.71;99461.52;1807073;100;26737;-85
2021/08/17 07:42:39;;;;;;;3.77;1.42;;;;;;;29.21;38.31;99460.75;2049161;92;27700;-84
2021/08/17 07:50:20;;;;;;;1.67;1.15;;;;;;;28.27;38.29;99470.88;2079067;92;25887;-85
2021/08/17 07:54:27;;;;;;;;;;;;;;;;;;;;;
2021/08/17 08:05:43;;;;;;;3.22;1.07;;;;;;;31.89;35.07;99474.71;1965467;97;25663;-84
2021/08/17 08:29:14;;;;;;;2.58;1.70;;;;;;;31.13;32.10;99504.37;1864363;100;25706;-88
2021/08/17 08:33:24;;;;;;;1.57;1.30;;;;;;;30.16;32.84;99521.30;1839328;106;25719;-81
2021/08/17 08:40:49;;;;;;;;;;;;;;;;;;;;;
2021/08/17 08:45:03;;;;;;;2.95;1.27;;;;;;;27.92;34.86;99518.67;1861897;101;26061;-87
2021/08/17 08:52:42;;;;;;;5.45;1.25;;;;;;;26.78;35.84;99525.33;1807276;108;25633;-85
2021/08/17 09:06:23;;;;;;;;;;;;;;;;;;;;;
2021/08/17 09:16:12;;;;;;;1.90;1.40;;;;;;;25.28;37.88;99544.02;1833795;106;25669;-88
2021/08/17 09:19:50;;;;;;;6.35;1.82;;;;;;;25.00;38.23;99535.62;1803037;107;25690;-82
2021/08/17 09:23:56;;;;;;;;;;;;;;;;;;;;;
2021/08/17 09:27:53;;;;;;;2.80;1.70;;;;;;;24.66;39.06;99539.92;1815321;107;25835;-89
2021/08/17 09:31:41;;;;;;;2.83;1.80;;;;;;;24.89;38.94;99545.48;1832910;106;26193;-76
2021/08/17 09:35:16;;;;;;;2.90;1.87;;;;;;;24.38;39.65;99547.85;1837578;105;25872;-75
2021/08/17 09:38:56;;;;;;;3.40;1.52;;;;;;;24.45;39.86;99541.80;1864566;100;25906;-87
2021/08/17 09:42:38;;;;;;;2.47;1.30;;;;;;;24.33;40.11;99542.33;1793060;109;25645;-86
2021/08/17 09:46:13;;;;;;;4.58;1.55;;;;;;;24.26;40.28;99540.42;1798715;104;25861;-85
2021/08/17 09:49:42;;;;;;;5.33;1.65;;;;;;;24.27;40.30;99550.16;1874183;98;25624;-85
2021/08/17 09:57:10;;;;;;;2.90;1.60;;;;;;;24.25;39.99;99556.88;1838154;104;26004;-85
2021/08/17 10:07:58;;;;;;;2.98;1.60;;;;;;;24.14;39.25;99567.63;1881701;100;25945;-77
2021/08/17 10:11:22;;;;;;;2.90;1.32;;;;;;;23.68;40.17;99568.32;1910269;102;25693;-80
2021/08/17 10:18:49;;;;;;;1.72;1.30;;;;;;;;;;1854081;101;26224;-81
2021/08/17 10:26:53;;;;;;;4.92;1.47;;;;;;;23.61;41.03;99562.36;1920115;97;25857;-80
2021/08/17 10:33:53;;;;;;;1.98;1.10;;;;;;;24.78;39.17;99577.13;1891409;100;25711;-73
2021/08/17 10:37:21;;;;;;;4.30;1.70;;;;;;;25.01;39.16;99577.34;1964675;97;25723;-77
2021/08/17 10:41:32;;;;;;;3.58;1.32;;;;;;;25.03;39.23;99588.33;2040546;94;25631;-83
2021/08/17 10:45:02;;;;;;;6.00;1.10;;;;;;;24.81;38.92;99592.52;2070935;94;25692;-78
2021/08/17 10:49:02;;;;;;;4.12;1.47;;;;;;;24.79;39.40;99581.52;2094085;93;25757;-82
2021/08/17 10:52:43;;;;;;;8.35;1.20;;;;;;;24.64;39.03;99581.31;2093679;94;25614;-78
2021/08/17 10:56:25;;;;;;;2.93;1.20;;;;;;;24.67;39.20;99593.61;2092215;94;25656;-74
2021/08/17 10:59:52;;;;;;;4.20;0.80;;;;;;;24.73;38.40;99590.19;2001326;97;25635;-81
2021/08/17 11:03:20;;;;;;;4.67;1.25;;;;;;;24.60;38.44;99607.69;1981284;99;25657;-77
2021/08/17 11:06:51;;;;;;;2.47;1.30;;;;;;;23.94;39.01;99609.78;1997874;97;25604;-72
2021/08/17 11:10:32;;;;;;;3.60;0.90;;;;;;;23.41;40.17;99609.77;1980995;99;25656;-81
2021/08/17 11:14:30;;;;;;;1.67;1.27;;;;;;;23.43;40.29;99614.56;1981817;98;44173;-84
2021/08/17 11:18:03;;;;;;;4.65;1.25;;;;;;;23.36;40.83;99613.09;2000380;96;25706;-82
2021/08/17 11:21:52;;;;;;;4.75;1.50;;;;;;;23.50;40.93;99624.02;2040691;96;25611;-72
2021/08/17 11:25:17;;;;;;;2.10;1.20;;;;;;;23.50;41.06;99624.02;2024025;97;25612;-78
2021/08/17 11:28:44;;;;;;;5.15;1.22;;;;;;;23.53;41.31;99629.69;2022600;95;25643;-76
2021/08/17 11:32:50;;;;;;;2.27;1.00;;;;;;;23.64;41.08;99626.09;2053068;96;25591;-73
2021/08/17 11:36:41;;;;;;;4.25;1.12;;;;;;;23.61;41.26;99637.34;2061365;94;25611;-78
2021/08/17 11:40:22;;;;;;;3.60;1.30;;;;;;;24.06;41.02;99623.88;2039870;95;25548;-77
2021/08/17 11:44:02;;;;;;;3.77;1.20;;;;;;;24.60;40.62;99634.34;2033082;96;25606;-77
2021/08/17 11:48:04;;;;;;;5.35;1.30;;;;;;;24.94;39.88;99634.09;2032980;96;25932;-77
2021/08/17 11:51:29;;;;;;;4.50;1.62;;;;;;;24.98;39.03;99645.03;2064797;94;25547;-76
2021/08/17 11:55:19;;;;;;;2.17;1.20;;;;;;;24.53;38.75;99651.55;2090522;90;25496;-76
2021/08/17 11:58:48;;;;;;;1.30;1.12;;;;;;;24.08;39.21;99646.45;2167992;86;25682;-74
2021/08/17 12:02:29;;;;;;;4.30;1.22;;;;;;;23.99;39.57;99649.89;2258444;81;25802;-73
2021/08/17 12:05:56;;;;;;;3.25;1.32;;;;;;;24.17;39.35;99646.92;2380460;82;25852;-77
2021/08/17 12:09:24;;;;;;;4.40;1.98;;;;;;;23.84;39.55;99653.23;2384647;82;25894;-79
2021/08/17 12:16:25;;;;;;;1.62;1.10;;;;;;;23.87;40.14;99645.13;2228358;87;25831;-77
2021/08/17 12:19:59;;;;;;;8.20;1.20;;;;;;;24.23;39.79;99637.77;2229803;85;25590;-76
2021/08/17 12:23:52;;;;;;;3.33;1.45;;;;;;;24.26;39.48;99637.64;2266058;86;25549;-75
2021/08/17 12:27:23;;;;;;;5.45;1.55;;;;;;;24.53;39.09;99641.36;2216191;87;25544;-76
2021/08/17 12:30:52;;;;;;;3.22;1.50;;;;;;;24.06;38.58;99635.85;2219538;88;25591;-75
2021/08/17 12:34:24;;;;;;;4.83;1.12;;;;;;;23.76;39.38;99636.73;2226867;86;25654;-73
2021/08/17 12:37:58;;;;;;;4.53;1.70;;;;;;;23.75;39.29;99634.98;2162271;85;25690;-80
2021/08/17 12:41:55;;;;;;;8.48;1.30;;;;;;;23.99;38.93;99637.05;2372377;82;25862;-80
2021/08/17 13:04:46;;;;;;;5.35;1.70;;;;;;;24.00;38.26;99634.34;2423905;80;25523;-84
2021/08/17 13:08:08;;;;;;;4.12;1.27;;;;;;;23.85;38.75;99638.13;2380614;81;25623;-77
2021/08/17 13:11:29;;;;;;;8.08;2.40;;;;;;;23.32;39.14;99637.62;2381072;83;25860;-77
2021/08/17 13:14:50;;;;;;;4.47;1.20;;;;;;;22.68;40.21;99643.21;2381376;81;25695;-76
2021/08/17 13:18:11;;;;;;;1.22;0.95;;;;;;;22.44;40.94;99639.69;2370906;81;26230;-75
2021/08/17 13:21:47;;;;;;;2.55;1.45;;;;;;;22.58;41.31;99644.91;2363270;81;25954;-74
2021/08/17 13:25:15;;;;;;;5.55;1.17;;;;;;;22.47;41.35;99638.25;2309278;82;25700;-80
2021/08/17 13:28:44;;;;;;;7.45;3.77;;;;;;;22.10;41.73;99648.38;2310860;84;25745;-81
2021/08/17 13:32:26;;;;;;;1.75;1.30;;;;;;;22.06;42.23;99645.89;2328670;83;25974;-76
2021/08/17 13:36:17;;;;;;;14.75;2.08;;;;;;;22.30;42.57;99648.16;2329161;83;25822;-81
2021/08/17 13:39:38;;;;;;;1.98;1.07;;;;;;;22.81;42.46;99636.50;2253595;86;26682;-77
2021/08/17 13:43:13;;;;;;;1.85;0.98;;;;;;;23.09;41.71;99641.20;2247988;83;26109;-85
2021/08/17 13:46:37;;;;;;;2.45;1.60;;;;;;;23.53;41.98;99640.33;2260130;86;26315;-77
2021/08/17 13:49:58;;;;;;;1.90;1.17;;;;;;;23.93;40.80;99650.19;2289793;85;26037;-77
2021/08/17 13:53:21;;;;;;;8.03;1.30;;;;;;;24.31;40.74;99651.63;2318442;84;25794;-77
2021/08/17 13:56:51;;;;;;;4.55;1.12;;;;;;;24.86;40.14;99655.80;2249230;85;26359;-81
2021/08/17 14:00:13;;;;;;;4.10;1.27;;;;;;;24.59;39.53;99661.93;2213277;87;25849;-81
2021/08/17 14:03:55;;;;;;;2.80;1.20;;;;;;;24.04;39.55;99676.34;2259249;85;25803;-79
2021/08/17 14:07:33;;;;;;;7.72;1.60;;;;;;;23.75;40.03;99670.91;2301648;85;25792;-76
2021/08/17 14:10:56;;;;;;;4.12;1.10;;;;;;;23.66;40.15;99666.83;2298402;85;25673;-81
2021/08/17 14:14:23;;;;;;;5.58;1.10;;;;;;;23.26;40.38;99673.77;2241338;85;25684;-79
2021/08/17 14:17:45;;;;;;;4.80;1.00;;;;;;;22.91;40.96;99679.08;2331140;83;25960;-79
2021/08/17 14:21:25;;;;;;;4.22;0.93;;;;;;;22.58;41.64;99683.42;2338035;83;26262;-75
2021/08/17 14:24:46;;;;;;;8.70;1.37;;;;;;;22.47;42.15;99685.59;2288213;85;25727;-74
2021/08/17 14:28:07;;;;;;;1.67;1.17;;;;;;;22.25;42.25;99696.13;2298115;85;25669;-73
2021/08/17 14:31:41;;;;;;;6.83;1.20;;;;;;;22.16;42.42;99686.69;2329599;83;25686;-76
2021/08/17 14:35:12;;;;;;;2.02;1.15;;;;;;;21.93;42.60;99683.92;2353467;83;25582;-77
2021/08/17 14:38:53;;;;;;;3.30;0.80;;;;;;;21.73;43.09;99683.73;2345340;83;25690;-78
2021/08/17 14:42:23;;;;;;;7.72;1.02;;;;;;;21.74;43.62;99678.86;2342859;83;25892;-77
2021/08/17 14:45:53;;;;;;;3.33;1.87;;;;;;;21.84;43.77;99674.97;2348404;83;25670;-74
2021/08/17 14:49:47;;;;;;;6.95;1.92;;;;;;;21.75;43.94;99680.58;2356681;83;25677;-78
2021/08/17 14:53:12;;;;;;;3.55;1.00;;;;;;;21.53;44.02;99675.99;2361679;83;25666;-77
2021/08/17 14:56:36;;;;;;;2.83;0.90;;;;;;;21.54;44.48;99687.00;2360322;83;25703;-78
2021/08/17 15:00:07;;;;;;;6.60;1.50;;;;;;;21.48;44.40;99692.50;2358942;83;25674;-80
2021/08/17 15:03:34;;;;;;;1.60;0.98;;;;;;;21.34;44.60;99681.44;2338900;83;25708;-79
2021/08/17 15:06:55;;;;;;;2.85;1.10;;;;;;;21.49;44.70;99690.70;2339417;83;25669;-81
2021/08/17 15:10:20;;;;;;;1.82;0.88;;;;;;;21.60;44.72;99689.46;2342940;84;25797;-77
2021/08/17 15:13:41;;;;;;;7.28;1.10;;;;;;;21.68;44.31;99694.50;2354410;83;25862;-74
2021/08/17 15:17:02;;;;;;;2.05;1.02;;;;;;;21.54;44.58;99690.12;2365584;83;25582;-75
2021/08/17 15:20:38;;;;;;;1.60;1.10;;;;;;;21.74;44.41;99694.31;2363598;83;25645;-80
2021/08/17 15:23:59;;;;;;;3.27;1.30;;;;;;;21.57;44.17;99700.62;2353052;82;25654;-77
2021/08/17 15:27:20;;;;;;;3.62;1.40;;;;;;;21.22;44.77;99689.30;2348203;84;25656;-80
2021/08/17 15:30:41;;;;;;;1.57;0.93;;;;;;;21.21;44.95;99688.91;2347386;83;25644;-78
2021/08/17 15:34:04;;;;;;;7.78;1.10;;;;;;;21.03;45.09;99679.74;2356387;82;26182;-84
2021/08/17 15:37:25;;;;;;;5.12;1.10;;;;;;;20.96;45.29;99688.80;2340455;83;26159;-84
2021/08/17 15:40:47;;;;;;;4.30;1.05;;;;;;;20.89;45.64;99694.73;2339784;83;25777;-79
2021/08/17 15:44:09;;;;;;;4.65;1.20;;;;;;;20.82;45.62;99681.23;2363700;83;25667;-81
2021/08/17 15:47:32;;;;;;;3.10;1.10;;;;;;;20.86;45.70;99684.69;2362410;82;25670;-81
2021/08/17 15:50:53;;;;;;;5.97;1.40;;;;;;;20.89;45.74;99694.73;2350168;82;25657;-82
2021/08/17 15:54:14;;;;;;;2.12;1.12;;;;;;;20.84;45.90;99677.23;2338825;83;25800;-81
2021/08/17 15:57:44;;;;;;;4.25;0.95;;;;;;;20.99;45.81;99675.42;2361355;83;25681;-81
2021/08/17 16:01:05;;;;;;;9.30;1.10;;;;;;;20.98;45.55;99683.84;2364156;83;25769;-80
2021/08/17 16:04:26;;;;;;;3.20;1.77;;;;;;;20.81;45.74;99688.77;2362026;83;25753;-78
2021/08/17 16:07:53;;;;;;;5.05;0.98;;;;;;;20.61;46.06;99676.56;2350720;82;25653;-77
2021/08/17 16:11:14;;;;;;;2.35;0.88;;;;;;;20.60;46.39;99669.08;2327816;82;25733;-79
2021/08/17 16:14:37;;;;;;;3.80;1.12;;;;;;;20.68;46.44;99667.53;2319014;85;25733;-79
2021/08/17 16:18:04;;;;;;;1.05;0.90;;;;;;;20.74;46.62;99665.56;2317793;84;25669;-79
2021/08/17 16:25:06;;;;;;;6.15;1.40;;;;;;;20.60;46.62;99665.57;2313430;83;25784;-83
2021/08/17 16:28:29;;;;;;;5.90;1.92;;;;;;;20.61;46.89;99672.14;2332837;83;25749;-82
2021/08/17 16:31:50;;;;;;;4.35;0.90;;;;;;;20.57;46.91;99683.73;2326670;83;25768;-80
2021/08/17 16:35:13;;;;;;;2.17;1.00;;;;;;;20.46;47.28;99685.33;2365449;82;25751;-80
2021/08/17 16:38:34;;;;;;;1.12;0.78;;;;;;;20.29;47.24;99675.67;2333443;84;25708;-76
2021/08/17 16:41:55;;;;;;;4.40;1.15;;;;;;;20.25;47.43;99670.05;2366651;83;25201;-76
2021/08/17 16:45:17;;;;;;;2.40;0.82;;;;;;;20.18;47.79;99672.00;2361351;82;25717;-75
2021/08/17 16:48:38;;;;;;;2.25;1.55;;;;;;;19.97;47.87;99672.55;2361945;82;25603;-75
2021/08/17 16:51:58;;;;;;;2.77;1.00;;;;;;;19.87;48.42;99680.31;2336163;83;25683;-74
2021/08/17 16:55:20;;;;;;;8.03;1.10;;;;;;;19.87;48.42;99680.31;2335237;83;25694;-76
2021/08/17 16:58:40;;;;;;;6.05;1.02;;;;;;;19.76;48.49;99688.52;2359563;83;25724;-75
2021/08/17 17:02:05;;;;;;;4.40;1.05;;;;;;;19.71;48.74;99681.14;2356834;83;25729;-78
2021/08/17 17:05:26;;;;;;;2.00;1.00;;;;;;;19.67;48.98;99689.60;2354761;83;25889;-78
2021/08/17 17:08:50;;;;;;;4.83;1.20;;;;;;;19.72;49.09;99681.13;2357846;82;25728;-75
2021/08/17 17:12:12;;;;;;;6.92;1.95;;;;;;;19.75;49.22;99685.02;2358138;83;25655;-76
2021/08/17 17:15:34;;;;;;;3.45;1.12;;;;;;;19.78;49.20;99682.75;2365293;83;26318;-76
2021/08/17 17:18:55;;;;;;;3.37;1.45;;;;;;;19.80;49.23;99688.85;2386069;83;26298;-76
2021/08/17 17:22:16;;;;;;;2.92;0.80;;;;;;;19.79;49.16;99693.28;2378472;82;25722;-77
2021/08/17 17:25:40;;;;;;;2.25;0.90;;;;;;;19.76;49.28;99696.00;2368127;83;26333;-75
2021/08/17 17:29:01;;;;;;;4.90;0.90;;;;;;;19.74;49.34;99696.94;2363944;82;25817;-75
2021/08/17 17:32:28;;;;;;;1.67;0.95;;;;;;;19.68;49.48;99691.83;2357035;83;25652;-74
2021/08/17 17:35:49;;;;;;;3.10;1.20;;;;;;;19.67;49.68;99694.89;2357781;83;25705;-74
2021/08/17 17:39:11;;;;;;;2.62;1.10;;;;;;;19.63;49.72;99703.81;2358427;83;25695;-74
2021/08/17 17:42:33;;;;;;;5.62;1.00;;;;;;;19.59;49.94;99697.70;2357917;82;25683;-74
2021/08/17 17:45:54;;;;;;;3.17;1.12;;;;;;;19.55;50.09;99707.08;2375256;83;25682;-75
2021/08/17 17:49:15;;;;;;;7.90;1.12;;;;;;;19.51;50.20;99703.64;2374558;81;25497;-75
2021/08/17 17:52:36;;;;;;;6.60;1.20;;;;;;;19.54;50.06;99704.89;2375964;81;31573;-74
2021/08/17 17:55:57;;;;;;;2.58;0.93;;;;;;;19.65;50.08;99709.08;2375126;83;25722;-75
2021/08/17 17:59:17;;;;;;;4.55;0.98;;;;;;;19.69;49.96;99702.80;2375539;81;25572;-76
2021/08/17 18:02:42;;;;;;;2.95;1.90;;;;;;;19.66;49.88;99711.67;2375103;83;25650;-76
2021/08/17 18:06:03;;;;;;;5.12;1.10;;;;;;;19.53;49.97;99716.34;2375212;82;25660;-78
2021/08/17 18:09:24;;;;;;;6.53;1.20;;;;;;;19.40;50.33;99721.96;2352987;82;25658;-76
2021/08/17 18:12:45;;;;;;;4.90;1.00;;;;;;;19.31;50.60;99717.77;2357181;83;25746;-75
2021/08/17 18:16:06;;;;;;;5.55;1.00;;;;;;;19.27;50.86;99724.91;2357165;83;30967;-74
2021/08/17 18:19:27;;;;;;;3.72;0.82;;;;;;;19.30;51.01;99727.91;2357619;83;25828;-78
2021/08/17 18:22:50;;;;;;;3.25;0.95;;;;;;;19.21;51.03;99725.03;2357355;83;25560;-74
2021/08/17 18:26:15;;;;;;;5.78;1.00;;;;;;;19.04;51.24;99720.12;2357609;83;25817;-79
2021/08/17 18:29:39;;;;;;;2.45;0.95;;;;;;;19.02;51.50;99723.23;2357679;83;25769;-78
2021/08/17 18:33:03;;;;;;;2.02;0.95;;;;;;;18.95;51.69;99724.27;2356258;83;25689;-74
2021/08/17 18:36:24;;;;;;;5.92;0.95;;;;;;;18.78;52.00;99729.90;2357418;83;25856;-74
2021/08/17 18:39:45;;;;;;;3.87;1.17;;;;;;;18.69;52.28;99731.36;2357431;83;30899;-75
2021/08/17 18:43:07;;;;;;;3.20;0.90;;;;;;;18.58;52.55;99734.22;2357259;83;30871;-75
2021/08/17 18:46:30;;;;;;;3.95;1.20;;;;;;;18.60;52.58;99735.53;2356746;83;25614;-78
2021/08/17 18:49:50;;;;;;;5.97;1.40;;;;;;;18.59;52.60;99737.72;2357329;83;26300;-79
2021/08/17 18:53:11;;;;;;;3.87;1.02;;;;;;;18.59;52.66;99744.33;2349458;82;31452;-73
2021/08/17 18:56:35;;;;;;;3.52;0.98;;;;;;;18.57;52.88;99745.69;2318422;83;25595;-74
2021/08/17 18:59:59;;;;;;;3.42;1.10;;;;;;;18.61;52.88;99738.12;2318844;84;25671;-76
2021/08/17 19:03:20;;;;;;;6.15;1.92;;;;;;;18.56;52.87;99748.34;2323211;82;25753;-75
2021/08/17 19:06:47;;;;;;;4.15;1.22;;;;;;;18.41;53.10;99746.42;2346018;83;26415;-77
2021/08/17 19:10:10;;;;;;;3.17;1.17;;;;;;;18.33;53.29;99754.94;2338556;83;25718;-77
2021/08/17 19:13:32;;;;;;;6.03;1.45;;;;;;;18.33;53.42;99756.71;2342465;83;25722;-74
2021/08/17 19:16:53;;;;;;;3.12;1.35;;;;;;;18.34;53.51;99753.16;2345414;84;25710;-77
2021/08/17 19:20:16;;;;;;;3.00;1.20;;;;;;;18.30;53.51;99751.03;2342461;83;25703;-80
2021/08/17 19:23:40;;;;;;;4.00;1.47;;;;;;;18.21;53.66;99752.51;2347073;82;25611;-83
2021/08/17 19:27:04;;;;;;;3.33;1.47;;;;;;;18.12;53.82;99752.66;2364412;82;25707;-78
2021/08/17 19:30:26;;;;;;;2.33;1.20;;;;;;;18.15;53.93;99748.66;2358321;82;25690;-80
2021/08/17 19:33:47;;;;;;;4.97;1.30;;;;;;;18.11;53.94;99745.20;2364697;83;25610;-82
2021/08/17 19:37:10;;;;;;;4.87;1.25;;;;;;;18.08;54.10;99747.89;2342940;83;25680;-83
2021/08/17 19:40:31;;;;;;;3.30;1.20;;;;;;;18.09;54.04;99741.73;2294142;84;25753;-80
2021/08/17 19:44:03;;;;;;;17.42;2.70;;;;;;;18.10;54.21;99738.64;2329064;84;26096;-79
2021/08/17 19:47:25;;;;;;;3.22;2.45;;;;;;;18.05;54.24;99733.42;2344490;83;26309;-79
2021/08/17 19:50:51;;;;;;;4.22;1.35;;;;;;;18.00;54.35;99735.74;2350618;82;25662;-77
2021/08/17 19:54:16;;;;;;;5.15;1.60;;;;;;;17.92;54.50;99749.94;2329036;83;25866;-80
2021/08/17 19:57:37;;;;;;;3.83;1.22;;;;;;;17.91;54.71;99741.58;2362496;83;25673;-84
2021/08/17 20:00:58;;;;;;;2.90;1.32;;;;;;;17.89;54.69;99744.70;2360560;82;31464;-83
2021/08/17 20:04:19;;;;;;;5.35;1.85;;;;;;;17.81;54.92;99733.39;2395671;82;25633;-80
2021/08/17 20:07:40;;;;;;;1.85;1.10;;;;;;;17.79;55.04;99727.75;2394415;82;26387;-83
2021/08/17 20:11:17;;;;;;;2.80;1.32;;;;;;;17.79;55.08;99727.30;2391042;82;30927;-81
2021/08/17 20:18:17;;;;;;;6.87;1.57;;;;;;;17.77;55.26;99722.48;2544692;75;30897;-84
2021/08/17 20:21:41;;;;;;;2.65;1.67;;;;;;;17.64;55.34;99718.27;2511100;78;25873;-83
2021/08/17 20:25:03;;;;;;;5.40;1.17;;;;;;;17.59;55.45;99717.48;2512469;78;25557;-83
2021/08/17 20:28:24;;;;;;;3.35;1.15;;;;;;;17.56;55.60;99722.80;2518714;78;26253;-84
2021/08/17 20:31:46;;;;;;;5.53;1.82;;;;;;;17.57;55.65;99714.86;2514098;78;25623;-85
2021/08/17 20:35:08;;;;;;;2.37;1.45;;;;;;;17.53;55.77;99712.30;2513523;78;25745;-84
2021/08/17 20:38:29;;;;;;;4.53;1.15;;;;;;;17.60;55.79;99700.77;2513377;78;25654;-83
2021/08/17 20:41:50;;;;;;;5.75;2.35;;;;;;;17.59;55.88;99693.77;2513929;78;31443;-82
2021/08/17 20:45:12;;;;;;;4.87;1.98;;;;;;;17.59;55.88;99693.77;2513479;78;25710;-83
2021/08/17 20:48:36;;;;;;;4.20;1.30;;;;;;;17.54;55.96;99704.36;2513738;78;25659;-85
2021/08/17 20:51:57;;;;;;;3.98;1.27;;;;;;;17.54;55.86;99704.81;2513549;78;25711;-83
2021/08/17 20:55:18;;;;;;;2.20;1.37;;;;;;;17.53;55.88;99699.99;2488931;78;30856;-83
2021/08/17 20:58:39;;;;;;;7.08;1.45;;;;;;;17.54;55.95;99704.36;2471645;80;25606;-83
2021/08/17 21:02:00;;;;;;;2.47;1.22;;;;;;;17.54;55.98;99709.63;2470815;80;30912;-83
2021/08/17 21:05:22;;;;;;;7.50;1.65;;;;;;;17.53;55.89;99703.08;2471821;78;25692;-84
2021/08/17 21:08:47;;;;;;;2.12;1.20;;;;;;;17.49;55.97;99708.84;2468594;79;25714;-83
2021/08/17 21:12:12;;;;;;;5.83;1.47;;;;;;;17.48;55.95;99712.35;2471233;78;26170;-86
2021/08/17 21:15:42;;;;;;;3.42;1.40;;;;;;;17.49;56.06;99710.16;2470710;78;25613;-83
2021/08/17 21:19:05;;;;;;;1.77;1.30;;;;;;;17.40;56.10;99712.48;2464940;80;25669;-83
2021/08/17 21:22:26;;;;;;;3.35;1.50;;;;;;;17.33;56.32;99705.56;2469141;80;25640;-84
2021/08/17 21:25:46;;;;;;;5.42;2.52;;;;;;;17.22;56.53;99704.41;2466649;78;31390;-82
2021/08/17 21:29:07;;;;;;;2.98;1.10;;;;;;;17.09;56.89;99704.16;2460541;79;31358;-82
2021/08/17 21:32:30;;;;;;;4.65;1.75;;;;;;;16.99;57.13;99697.27;2467956;78;30962;-83
2021/08/17 21:35:51;;;;;;;5.72;1.50;;;;;;;16.93;57.45;99698.66;2470588;79;25621;-82
2021/08/17 21:39:12;;;;;;;1.90;1.32;;;;;;;16.82;57.68;99697.49;2469155;79;30903;-85
2021/08/17 21:42:33;;;;;;;6.00;1.47;;;;;;;16.76;58.01;99705.46;2470719;79;30799;-84
2021/08/17 21:45:56;;;;;;;2.87;1.50;;;;;;;16.72;58.20;99699.78;2468380;79;25642;-85
2021/08/17 21:49:17;;;;;;;4.92;1.45;;;;;;;16.69;58.28;99695.87;2467563;79;25172;-85
2021/08/17 21:52:38;;;;;;;5.17;1.60;;;;;;;16.73;58.39;99694.48;2470371;80;30793;-83
2021/08/17 21:56:15;;;;;;;8.53;2.20;;;;;;;16.72;58.45;99698.02;2471041;78;31286;-84